Flight Track Log - Related Links

Times and Time Zones

All times are in EDT time to prevent confusion due to time zone crossing. See the ASQ5941 flight status page for this flight to view local times or setup timezone preferences in your user account.

Time Position Orientation Groundspeed Altitude Reporting Facility
EDT Latitude Longitude Course Direction KTS MPH feet Rate Location/Type
Mon 03:22:12 PM 41.9167 -87.8833 90° East 201 231 3,200  Level Chicago TRACON
Mon 03:23:00 PM 41.9122 -87.8294 96° East 255 293 4,100 973 Climbing Chicago Center
Mon 03:24:00 PM 42.0561 -87.3274 78° East  Level FlightAware Approximate
Mon 03:24:03 PM 41.9342 -87.7086 76° East 270 311 5,000  Level Chicago Center
Mon 03:25:00 PM 42.0784 -87.1821 78° East  Level FlightAware Approximate
Mon 03:25:05 PM 41.9614 -87.6083 70° East 286 329 6,900  Level Chicago Center
Mon 03:26:00 PM 42.1000 -87.0369 90° East  Level FlightAware Approximate
Mon 03:26:07 PM 41.9903 -87.5025 70° East 299 344 8,800  Level Chicago Center
Mon 03:27:00 PM 42.0974 -86.8948 90° East  Level Estimated
Mon 03:27:09 PM 42.0222 -87.3853 70° East 328 377 10,200  Level Chicago Center
Mon 03:28:11 PM 42.0575 -87.2631 69° East 349 402 12,100 1,935 Climbing Chicago Center
Mon 03:29:13 PM 42.0911 -87.1419 69° East 347 399 14,200 1,984 Climbing Chicago Center
Mon 03:30:15 PM 42.1150 -86.9906 78° East 344 396 16,200 1,645 Climbing Chicago Center
Mon 03:31:17 PM 42.1189 -86.8575 88° East 355 409 17,600 1,403 Climbing Chicago Center
Mon 03:32:19 PM 42.1439 -86.7231 76° East 372 428 19,100 1,500 Climbing Chicago Center
Mon 03:33:21 PM 42.1675 -86.5686 78° East 382 440 20,700 1,500 Climbing Chicago Center
Mon 03:34:23 PM 42.1844 -86.4258 81° East 385 443 22,200 1,452 Climbing Chicago Center
Mon 03:35:25 PM 42.1886 -86.2808 88° East 387 445 23,700 1,548 Climbing Chicago Center
Mon 03:36:27 PM 42.1925 -86.1425 88° East 375 432 25,400 1,403 Climbing Chicago Center
Mon 03:37:29 PM 42.1969 -86.0042 87° East 370 426 26,600 1,161 Climbing Chicago Center
Mon 03:38:31 PM 42.2011 -85.8503 88° East 369 425 27,800 1,065 Climbing Chicago Center
Mon 03:39:33 PM 42.2039 -85.7111 88° East 374 430 28,800 871 Climbing Chicago Center
Mon 03:40:35 PM 42.2081 -85.5681 88° East 381 438 29,600 774 Climbing Chicago Center
Mon 03:41:37 PM 42.2114 -85.4214 88° East 391 450 30,400 774 Climbing Chicago Center
Mon 03:42:39 PM 42.2150 -85.2697 88° East 406 467 31,200 823 Climbing Chicago Center
Mon 03:43:41 PM 42.2203 -85.0808 88° East 418 481 32,100 774 Climbing Chicago Center
Mon 03:44:43 PM 42.2236 -84.9236 88° East 420 483 32,800 878 Climbing Chicago Center
Mon 03:45:44 PM 42.2269 -84.7678 88° East 420 483 33,900 1,024 Climbing Chicago Center
Mon 03:46:46 PM 42.2294 -84.6133 89° East 415 478 34,900 532 Climbing Chicago Center
Mon 03:47:48 PM 42.2308 -84.4603 89° East 412 474 35,000 57 Climbing Chicago Center
Mon 03:48:32 PM 42.2306 -84.3186 90° East 421 484 35,000  Level Cleveland Center
Mon 03:49:32 PM 42.2317 -84.1589 89° East 421 484 35,000  Level Cleveland Center
Mon 03:50:32 PM 42.2342 -84.0019 89° East 421 484 35,000  Level Cleveland Center
Mon 03:51:32 PM 42.2369 -83.8394 89° East 421 484 35,000  Level Cleveland Center
Mon 03:52:32 PM 42.2369 -83.6822 90° East 421 484 35,000  Level Cleveland Center
Mon 03:53:32 PM 42.2372 -83.5169 90° East 426 490 35,000  Level Cleveland Center
Mon 03:54:32 PM 42.2411 -83.3572 88° East 431 496 35,000  Level Cleveland Center
Mon 03:55:32 PM 42.2406 -83.2056 90° East 432 497 35,000  Level Cleveland Center
Mon 03:56:32 PM 42.2419 -83.0458 89° East 432 497 35,000  Level Cleveland Center
Mon 03:57:32 PM 42.2433 -82.8858 89° East 432 497 35,000  Level Cleveland Center
Mon 03:58:32 PM 42.2422 -82.7203 90° East 432 497 35,000  Level Cleveland Center
Mon 03:59:32 PM 42.2431 -82.5633 90° East 427 491 35,000  Level Cleveland Center
Mon 04:00:32 PM 42.2417 -82.4006 91° East 427 491 35,000  Level Cleveland Center
Mon 04:01:32 PM 42.2419 -82.2408 90° East 427 491 35,000  Level Cleveland Center
Mon 04:02:32 PM 42.2419 -82.0808 90° East 422 486 35,000  Level Cleveland Center
Mon 04:03:32 PM 42.2419 -81.9181 90° East 428 493 35,000  Level Cleveland Center
Mon 04:04:32 PM 42.2397 -81.7442 91° East 428 493 35,000  Level Cleveland Center
Mon 04:05:32 PM 42.2369 -81.5844 91° East 421 484 35,000  Level Cleveland Center
Mon 04:06:32 PM 42.2361 -81.4244 90° East 421 484 35,000  Level Cleveland Center
Mon 04:07:32 PM 42.2353 -81.2647 90° East 421 484 35,000  Level Cleveland Center
Mon 04:08:32 PM 42.2319 -81.0992 92° East 426 490 35,000  Level Cleveland Center
Mon 04:09:32 PM 42.2303 -80.9392 91° East 426 490 35,000  Level Cleveland Center
Mon 04:10:32 PM 42.2267 -80.7767 92° East 426 490 35,000  Level Cleveland Center
Mon 04:11:32 PM 42.2206 -80.6336 93° East 426 490 35,000  Level Cleveland Center
Mon 04:12:32 PM 42.1997 -80.4739 100° East 426 490 35,000  Level Cleveland Center
Mon 04:13:32 PM 42.1806 -80.3142 99° East 432 497 35,000  Level Cleveland Center
Mon 04:14:32 PM 42.1572 -80.1519 101° East 432 497 35,000 -250 Level Cleveland Center
Mon 04:15:32 PM 42.1356 -79.9981 101° East 427 491 34,500 -750 Descending Cleveland Center
Mon 04:16:32 PM 42.1161 -79.8386 99° East 427 491 33,500 -1,000 Descending Cleveland Center
Mon 04:17:32 PM 42.0939 -79.6767 100° East 427 491 32,500 -1,000 Descending Cleveland Center
Mon 04:18:32 PM 42.0717 -79.5203 101° East 427 491 31,500 -750 Descending Cleveland Center
Mon 04:19:32 PM 42.0494 -79.3611 101° East 427 491 31,000 -250 Descending Cleveland Center
Mon 04:20:32 PM 42.0289 -79.1967 99° East 427 491 31,000  Level Cleveland Center
Mon 04:21:32 PM 42.0039 -79.0353 102° East 432 497 31,000  Level Cleveland Center
Mon 04:22:32 PM 41.9806 -78.8681 101° East 437 503 31,000 -550 Level Cleveland Center
Mon 04:23:32 PM 41.9547 -78.6844 101° East 454 522 29,900 -1,050 Descending Cleveland Center
Mon 04:24:32 PM 41.9289 -78.5178 102° East 454 522 28,900 -1,000 Descending Cleveland Center
Mon 04:25:32 PM 41.9047 -78.3428 100° East 454 522 27,900 -1,500 Descending Cleveland Center
Mon 04:26:32 PM 41.8786 -78.1764 102° East 454 522 25,900 -1,804 Descending Cleveland Center
Mon 04:28:15 PM 41.8381 -77.9092 101° East 457 526 23,000 -1,061 Descending New York Center
Mon 04:29:16 PM 41.8128 -77.7394 101° East 457 526 23,000  Level New York Center
Mon 04:30:17 PM 41.7867 -77.5753 102° East 457 526 23,000  Level New York Center
Mon 04:31:15 PM 41.7608 -77.4058 101° East 457 526 23,000 -458 Level New York Center
Mon 04:32:15 PM 41.7347 -77.2392 102° East 457 526 22,100 -1,736 Descending New York Center
Mon 04:33:16 PM 41.7078 -77.0811 103° East 452 520 19,500 -2,479 Descending New York Center
Mon 04:34:16 PM 41.6828 -76.9231 102° East 440 506 17,100 -2,430 Descending New York Center
Mon 04:35:17 PM 41.6592 -76.7764 102° East 422 486 14,600 -2,579 Descending New York Center
Mon 04:36:17 PM 41.6333 -76.6242 103° East 393 452 11,900 -2,132 Descending New York Center
Mon 04:37:18 PM 41.6142 -76.5033 102° East 352 405 10,300 -1,361 Descending New York Center
Mon 04:38:16 PM 41.5947 -76.3906 103° East 320 368 9,200 -706 Descending New York Center
Mon 04:39:17 PM 41.5803 -76.2978 102° East 291 335 8,900 -857 Descending New York Center
Mon 04:40:15 PM 41.5619 -76.1967 104° East 284 327 7,500 -1,900 Descending New York Center
Mon 04:41:17 PM 41.5250 -76.0967 116° Southeast 273 314 5,100 -1,672 Descending New York Center
Mon 04:42:17 PM 41.4911 -76.0108 118° Southeast 268 308 4,100 -559 Descending New York Center
Mon 04:43:15 PM 41.4572 -75.9278 119° Southeast 263 303 4,000 -50 Descending New York Center
Mon 04:44:16 PM 41.4233 -75.8450 119° Southeast 263 303 4,000 -446 Level New York Center
Mon 04:45:16 PM 41.4122 -75.7639 100° East 237 273 3,100 -900 Descending New York Center

Login

Don't have an account? Register now (free) for customized features, flight alerts, and more!